createdAt,value
2018-10-09T00:01:03.263Z,92.80
2018-10-09T00:03:31.104Z,92.60
2018-10-09T00:05:58.999Z,92.60
2018-10-09T00:08:26.840Z,92.50
2018-10-09T00:10:54.718Z,92.30
2018-10-09T00:13:22.602Z,92.20
2018-10-09T00:15:50.770Z,92.40
2018-10-09T00:18:18.599Z,92.50
2018-10-09T00:20:46.470Z,92.60
2018-10-09T00:23:14.340Z,92.70
2018-10-09T00:25:42.210Z,92.60
2018-10-09T00:28:10.084Z,92.40
2018-10-09T00:30:37.915Z,92.50
2018-10-09T00:33:05.842Z,92.60
2018-10-09T00:35:33.740Z,92.60
2018-10-09T00:38:01.647Z,92.70
2018-10-09T00:40:29.521Z,92.70
2018-10-09T00:42:57.379Z,92.70
2018-10-09T00:45:25.312Z,92.70
2018-10-09T00:47:53.208Z,92.70
2018-10-09T00:50:21.057Z,92.80
2018-10-09T00:52:48.953Z,92.50
2018-10-09T00:55:16.865Z,92.30
2018-10-09T00:57:44.813Z,92.20
2018-10-09T01:00:12.673Z,92.20
2018-10-09T01:02:40.570Z,92.30
2018-10-09T01:05:08.581Z,92.30
2018-10-09T01:07:36.537Z,92.40
2018-10-09T01:10:04.457Z,92.50
2018-10-09T01:12:32.936Z,92.60
2018-10-09T01:15:00.823Z,92.60
2018-10-09T01:17:29.273Z,92.60
2018-10-09T01:19:57.137Z,92.70
2018-10-09T01:22:25.062Z,92.90
2018-10-09T01:24:52.935Z,92.50
2018-10-09T01:27:20.826Z,92.60
2018-10-09T01:29:48.683Z,92.60
2018-10-09T01:32:16.822Z,92.70
2018-10-09T01:34:44.784Z,92.60
2018-10-09T01:37:12.655Z,92.60
2018-10-09T01:39:41.211Z,92.50
2018-10-09T01:42:09.360Z,92.50
2018-10-09T01:44:37.249Z,92.60
2018-10-09T01:47:05.226Z,92.60
2018-10-09T01:49:33.160Z,92.70
2018-10-09T01:52:00.988Z,93.10
2018-10-09T01:54:28.908Z,93.10
2018-10-09T01:56:57.436Z,93.10
2018-10-09T01:59:25.324Z,93.10
2018-10-09T02:01:53.189Z,93.10
2018-10-09T02:04:21.050Z,93.10
2018-10-09T02:06:49.156Z,93.30
2018-10-09T02:09:16.987Z,93.30
2018-10-09T02:11:44.832Z,93.30
2018-10-09T02:14:12.668Z,93.20
2018-10-09T02:16:40.540Z,93.30
2018-10-09T02:19:08.392Z,93.50
2018-10-09T02:21:36.234Z,93.60
2018-10-09T02:24:04.240Z,93.70
2018-10-09T02:26:32.616Z,93.70
2018-10-09T02:29:00.442Z,93.70
2018-10-09T02:31:28.292Z,93.40
2018-10-09T02:33:56.146Z,93.40
2018-10-09T02:36:24.295Z,93.50
2018-10-09T02:38:52.144Z,93.50
2018-10-09T02:41:19.988Z,93.20
2018-10-09T02:43:47.838Z,93.10
2018-10-09T02:46:15.665Z,93.40
2018-10-09T02:48:43.521Z,93.10
2018-10-09T02:51:11.381Z,93.10
2018-10-09T02:53:40.169Z,93.20
2018-10-09T02:56:08.008Z,93.20
2018-10-09T02:58:35.836Z,93.30
2018-10-09T03:01:03.664Z,93.00
2018-10-09T03:03:31.496Z,93.20
2018-10-09T03:05:59.723Z,93.10
2018-10-09T03:08:27.632Z,93.10
2018-10-09T03:10:55.507Z,93.00
2018-10-09T03:13:23.323Z,92.90
2018-10-09T03:15:51.188Z,92.90
2018-10-09T03:18:19.007Z,92.90
2018-10-09T03:20:46.913Z,92.80
2018-10-09T03:23:14.777Z,93.00
2018-10-09T03:25:42.623Z,93.30
2018-10-09T03:28:10.453Z,93.50
2018-10-09T03:30:38.278Z,93.30
2018-10-09T03:33:06.290Z,93.20
2018-10-09T03:35:34.258Z,93.40
2018-10-09T03:38:02.110Z,93.20
2018-10-09T03:40:29.936Z,93.40
2018-10-09T03:42:57.790Z,93.60
2018-10-09T03:45:25.657Z,93.50
2018-10-09T03:47:53.485Z,93.30
2018-10-09T03:50:21.303Z,93.10
2018-10-09T03:52:49.168Z,93.20
2018-10-09T03:55:16.991Z,93.40
2018-10-09T03:57:44.852Z,93.60
2018-10-09T04:00:12.693Z,93.60
2018-10-09T04:02:40.576Z,93.50
2018-10-09T04:05:08.440Z,93.20
2018-10-09T04:07:36.289Z,93.20
2018-10-09T04:10:04.719Z,93.10
2018-10-09T04:12:32.582Z,93.50
2018-10-09T04:15:00.707Z,93.40
2018-10-09T04:17:28.634Z,93.30
2018-10-09T04:19:57.172Z,93.40
2018-10-09T04:22:25.077Z,93.70
2018-10-09T04:24:53.307Z,93.50
2018-10-09T04:27:21.149Z,93.50
2018-10-09T04:29:49.031Z,93.60
2018-10-09T04:32:16.911Z,93.70
2018-10-09T04:34:44.737Z,94.10
2018-10-09T04:37:12.574Z,93.80
2018-10-09T04:39:40.386Z,93.70
2018-10-09T04:42:08.292Z,93.70
2018-10-09T04:44:36.334Z,93.70
2018-10-09T04:47:04.504Z,93.80
2018-10-09T04:49:32.343Z,93.80
2018-10-09T04:52:00.473Z,94.10
2018-10-09T04:54:28.725Z,94.00
2018-10-09T04:56:56.917Z,94.00
2018-10-09T04:59:24.764Z,94.00
2018-10-09T05:01:53.476Z,94.00
2018-10-09T05:04:21.309Z,94.30
2018-10-09T05:06:49.451Z,93.70
2018-10-09T05:09:18.438Z,93.70
2018-10-09T05:11:46.299Z,93.90
2018-10-09T05:14:14.137Z,93.90
2018-10-09T05:16:42.042Z,94.00
2018-10-09T05:19:09.901Z,93.70
2018-10-09T05:21:37.759Z,93.50
2018-10-09T05:24:05.734Z,93.50
2018-10-09T05:26:33.597Z,93.40
2018-10-09T05:29:01.496Z,93.50
2018-10-09T05:31:29.353Z,93.50
2018-10-09T05:33:57.244Z,93.50
2018-10-09T05:36:26.043Z,93.50
2018-10-09T05:38:53.946Z,93.70
2018-10-09T05:41:21.800Z,93.60
2018-10-09T05:43:49.953Z,93.60
2018-10-09T05:46:17.787Z,93.80
2018-10-09T05:48:45.611Z,94.10
2018-10-09T05:51:13.496Z,93.90
2018-10-09T05:53:41.730Z,93.80
2018-10-09T05:56:09.993Z,93.60
2018-10-09T05:58:37.821Z,93.50
2018-10-09T06:01:05.741Z,93.10
2018-10-09T06:03:33.603Z,93.60
2018-10-09T06:06:01.579Z,93.70
2018-10-09T06:08:29.379Z,93.60
2018-10-09T06:10:57.264Z,93.40
2018-10-09T06:13:25.158Z,93.40
2018-10-09T06:15:53.001Z,93.60
2018-10-09T06:18:21.033Z,93.60
2018-10-09T06:20:49.172Z,93.50
2018-10-09T06:23:17.338Z,93.70
2018-10-09T06:25:45.520Z,93.80
2018-10-09T06:28:13.372Z,94.10
2018-10-09T06:30:41.568Z,94.30
2018-10-09T06:33:09.388Z,94.30
2018-10-09T06:35:37.613Z,93.60
2018-10-09T06:38:06.157Z,93.50
2018-10-09T06:40:34.075Z,93.90
2018-10-09T06:43:02.472Z,93.90
2018-10-09T06:45:30.349Z,94.00
2018-10-09T06:47:58.298Z,94.10
2018-10-09T06:50:26.189Z,94.00
2018-10-09T06:52:54.299Z,93.80
2018-10-09T06:55:22.159Z,94.10
2018-10-09T06:57:50.344Z,94.10
2018-10-09T07:00:18.553Z,94.20
2018-10-09T07:02:46.491Z,94.00
2018-10-09T07:05:14.377Z,94.30
2018-10-09T07:07:42.632Z,93.90
2018-10-09T07:10:10.487Z,94.10
2018-10-09T07:12:38.458Z,94.20
2018-10-09T07:15:06.712Z,93.90
2018-10-09T07:17:34.619Z,94.10
2018-10-09T07:20:02.734Z,94.20
2018-10-09T07:22:30.637Z,94.10
2018-10-09T07:24:59.108Z,94.20
2018-10-09T07:27:27.021Z,94.50
2018-10-09T07:29:55.157Z,94.30
2018-10-09T07:32:23.007Z,94.40
2018-10-09T07:34:50.858Z,94.40
2018-10-09T07:37:18.713Z,94.50
2018-10-09T07:39:46.560Z,94.10
2018-10-09T07:42:14.404Z,94.10
2018-10-09T07:44:43.204Z,93.90
2018-10-09T07:47:11.188Z,94.00
2018-10-09T07:49:39.124Z,93.80
2018-10-09T07:52:07.131Z,93.90
2018-10-09T07:54:35.282Z,93.80
2018-10-09T07:57:03.239Z,93.70
2018-10-09T07:59:31.085Z,93.70
2018-10-09T08:01:59.749Z,94.10
2018-10-09T08:04:27.650Z,94.30
2018-10-09T08:06:55.602Z,94.00
2018-10-09T08:09:23.484Z,93.90
2018-10-09T08:11:51.370Z,93.90
2018-10-09T08:14:19.234Z,93.80
2018-10-09T08:16:47.076Z,94.00
2018-10-09T08:19:15.273Z,93.90
2018-10-09T08:21:43.194Z,94.00
2018-10-09T08:24:11.067Z,94.10
2018-10-09T08:26:38.942Z,93.90
2018-10-09T08:29:06.844Z,94.10
2018-10-09T08:31:34.709Z,94.10
2018-10-09T08:34:02.606Z,94.40
2018-10-09T08:36:30.464Z,94.10
2018-10-09T08:38:58.616Z,94.10
2018-10-09T08:41:26.554Z,94.40
2018-10-09T08:43:54.441Z,94.70
2018-10-09T08:46:22.673Z,94.30
2018-10-09T08:48:50.709Z,94.40
2018-10-09T08:51:18.588Z,94.90
2018-10-09T08:53:46.462Z,94.50
2018-10-09T08:56:14.329Z,94.60
2018-10-09T08:58:42.190Z,94.60
2018-10-09T09:01:10.340Z,94.70
2018-10-09T09:03:38.313Z,94.50
2018-10-09T09:06:06.520Z,94.60
2018-10-09T09:08:34.501Z,94.70
2018-10-09T09:11:02.345Z,94.40
2018-10-09T09:13:30.223Z,94.60
2018-10-09T09:15:58.115Z,94.20
2018-10-09T09:18:26.007Z,94.20
2018-10-09T09:20:53.931Z,93.70
2018-10-09T09:23:21.728Z,93.70
2018-10-09T09:25:49.610Z,93.70
2018-10-09T09:28:17.703Z,93.20
2018-10-09T09:30:45.542Z,93.00
2018-10-09T09:33:13.820Z,92.80
2018-10-09T09:35:41.600Z,93.00
2018-10-09T09:38:09.437Z,93.30
2018-10-09T09:40:37.374Z,93.00
2018-10-09T09:43:05.547Z,92.80
2018-10-09T09:45:33.413Z,92.10
2018-10-09T09:48:01.232Z,92.60
2018-10-09T09:50:29.063Z,92.40
2018-10-09T09:52:56.925Z,91.90
2018-10-09T09:55:25.951Z,91.70
2018-10-09T09:57:54.256Z,91.70
2018-10-09T10:00:27.580Z,91.80
2018-10-09T10:02:55.669Z,91.70
2018-10-09T10:05:23.480Z,92.10
2018-10-09T10:07:51.460Z,91.60
2018-10-09T10:10:19.458Z,91.50
2018-10-09T10:12:48.230Z,91.10
2018-10-09T10:15:16.345Z,90.50
2018-10-09T10:17:44.221Z,90.30
2018-10-09T10:20:12.411Z,89.50
2018-10-09T10:22:40.492Z,89.20
2018-10-09T10:25:08.453Z,87.90
2018-10-09T10:27:36.378Z,86.80
2018-10-09T10:30:04.651Z,87.40
2018-10-09T10:32:32.501Z,86.90
2018-10-09T10:35:00.366Z,86.80
2018-10-09T10:37:28.224Z,86.60
2018-10-09T10:39:56.129Z,85.80
2018-10-09T10:42:24.004Z,85.30
2018-10-09T10:44:51.836Z,86.90
2018-10-09T10:47:19.722Z,85.50
2018-10-09T10:49:47.569Z,85.50
2018-10-09T10:52:15.814Z,84.80
2018-10-09T10:54:43.685Z,84.60
2018-10-09T10:57:11.575Z,86.10
2018-10-09T10:59:39.414Z,86.20
2018-10-09T11:02:07.617Z,84.20
2018-10-09T11:04:35.483Z,84.00
2018-10-09T11:07:03.641Z,84.50
2018-10-09T11:09:31.516Z,84.30
2018-10-09T11:11:59.389Z,83.90
2018-10-09T11:14:27.254Z,83.80
2018-10-09T11:16:55.157Z,83.50
2018-10-09T11:19:22.986Z,83.40
2018-10-09T11:21:51.137Z,83.30
2018-10-09T11:24:18.979Z,83.20
2018-10-09T11:26:46.837Z,82.60
2018-10-09T11:29:14.952Z,82.10
2018-10-09T11:31:42.860Z,81.40
2018-10-09T11:34:10.716Z,81.80
2018-10-09T11:36:38.988Z,80.90
2018-10-09T11:39:07.528Z,80.60
2018-10-09T11:41:35.430Z,80.30
2018-10-09T11:44:03.330Z,81.70
2018-10-09T11:46:31.300Z,81.30
2018-10-09T11:48:59.165Z,81.10
2018-10-09T11:51:27.056Z,81.20
2018-10-09T11:53:54.893Z,81.40
2018-10-09T11:56:23.035Z,81.00
2018-10-09T11:58:50.928Z,80.90
2018-10-09T12:01:18.894Z,82.20
2018-10-09T12:03:46.746Z,81.90
2018-10-09T12:06:14.617Z,81.20
2018-10-09T12:08:42.726Z,80.50
2018-10-09T12:11:10.588Z,81.30
2018-10-09T12:13:38.410Z,80.00
2018-10-09T12:16:06.708Z,79.90
2018-10-09T12:18:34.568Z,80.50
2018-10-09T12:21:02.419Z,80.80
2018-10-09T12:23:30.519Z,80.90
2018-10-09T12:25:58.859Z,80.80
2018-10-09T12:28:26.725Z,80.50
2018-10-09T12:30:54.623Z,80.00
2018-10-09T12:33:22.876Z,80.10
2018-10-09T12:35:50.716Z,79.00
2018-10-09T12:38:18.664Z,79.30
2018-10-09T12:40:46.660Z,79.50
2018-10-09T12:43:14.521Z,79.20
2018-10-09T12:45:42.718Z,79.40
2018-10-09T12:48:10.570Z,79.30
2018-10-09T12:50:38.452Z,79.70
2018-10-09T12:53:06.410Z,80.20
2018-10-09T12:55:34.251Z,79.60
2018-10-09T12:58:02.070Z,79.40
2018-10-09T13:00:29.952Z,79.10
2018-10-09T13:02:57.852Z,79.60
2018-10-09T13:05:26.802Z,78.00
2018-10-09T13:07:54.661Z,77.40
2018-10-09T13:10:22.873Z,76.70
2018-10-09T13:12:50.993Z,77.60
2018-10-09T13:15:18.858Z,78.20
2018-10-09T13:17:47.566Z,78.10
2018-10-09T13:20:15.617Z,78.00
2018-10-09T13:22:43.791Z,77.90
2018-10-09T13:25:11.571Z,77.30
2018-10-09T13:27:39.498Z,77.70
2018-10-09T13:30:07.778Z,77.00
2018-10-09T13:32:35.641Z,77.30
2018-10-09T13:35:03.589Z,77.00
2018-10-09T13:37:31.533Z,77.60
2018-10-09T13:39:59.426Z,78.00
2018-10-09T13:42:27.288Z,77.50
2018-10-09T13:44:55.154Z,77.70
2018-10-09T13:47:23.129Z,77.80
2018-10-09T13:49:50.962Z,77.70
2018-10-09T13:52:18.877Z,77.80
2018-10-09T13:54:46.766Z,77.60
2018-10-09T13:57:15.114Z,77.50
2018-10-09T13:59:42.949Z,77.70
2018-10-09T14:02:10.941Z,77.10
2018-10-09T14:04:38.855Z,77.80
2018-10-09T14:07:07.423Z,78.20
2018-10-09T14:09:36.047Z,78.20
2018-10-09T14:12:04.757Z,78.60
2018-10-09T14:14:33.843Z,78.80
2018-10-09T14:17:03.244Z,78.30
2018-10-09T14:19:31.516Z,78.20
2018-10-09T14:21:59.757Z,78.20
2018-10-09T14:24:27.676Z,78.30
2018-10-09T14:26:55.606Z,78.10
2018-10-09T14:29:23.771Z,78.10
2018-10-09T14:31:51.610Z,78.00
2018-10-09T14:34:19.700Z,78.40
2018-10-09T14:36:47.530Z,78.50
2018-10-09T14:39:15.350Z,78.20
2018-10-09T14:41:43.172Z,77.90
2018-10-09T14:44:11.142Z,78.60
2018-10-09T14:46:38.935Z,77.70
2018-10-09T14:49:06.828Z,77.80
2018-10-09T14:51:34.668Z,78.10
2018-10-09T14:54:02.601Z,78.40
2018-10-09T14:56:30.705Z,78.30
2018-10-09T14:58:58.820Z,78.50
2018-10-09T15:01:26.660Z,78.30
2018-10-09T15:03:55.229Z,78.40
2018-10-09T15:06:23.096Z,78.50
2018-10-09T15:08:50.973Z,78.50
2018-10-09T15:11:18.826Z,78.70
2018-10-09T15:13:46.680Z,78.60
2018-10-09T15:16:14.560Z,78.80
2018-10-09T15:18:42.489Z,78.80
2018-10-09T15:21:10.731Z,79.10
2018-10-09T15:23:38.600Z,80.00
2018-10-09T15:26:07.310Z,80.00
2018-10-09T15:28:35.175Z,80.00
2018-10-09T15:31:03.074Z,80.20
2018-10-09T15:33:30.923Z,80.40
2018-10-09T15:35:58.803Z,80.30
2018-10-09T15:38:27.748Z,80.60
2018-10-09T15:40:55.739Z,80.80
2018-10-09T15:43:23.601Z,81.00
2018-10-09T15:46:54.783Z,81.20
2018-10-09T15:49:23.112Z,81.70
2018-10-09T15:51:50.928Z,82.10
2018-10-09T15:54:18.790Z,82.60
2018-10-09T15:56:46.896Z,82.60
2018-10-09T15:59:15.569Z,83.30
2018-10-09T16:01:43.416Z,82.60
2018-10-09T16:04:11.602Z,82.70
2018-10-09T16:06:39.596Z,82.80
2018-10-09T16:09:08.709Z,83.30
2018-10-09T16:11:36.602Z,83.60
2018-10-09T16:14:04.516Z,83.60
2018-10-09T16:16:32.335Z,83.80
2018-10-09T16:19:00.176Z,84.00
2018-10-09T16:21:27.987Z,84.10
2018-10-09T16:23:55.873Z,85.10
2018-10-09T16:26:23.728Z,84.80
2018-10-09T16:28:52.220Z,85.60
2018-10-09T16:31:20.094Z,85.40
2018-10-09T16:33:47.942Z,85.90
2018-10-09T16:36:15.809Z,85.80
2018-10-09T16:38:43.640Z,86.00
2018-10-09T16:41:11.905Z,86.10
2018-10-09T16:43:39.764Z,86.30
2018-10-09T16:46:07.947Z,86.30
2018-10-09T16:48:36.007Z,86.70
2018-10-09T16:51:03.897Z,86.60
2018-10-09T16:53:31.840Z,86.70
2018-10-09T16:56:00.080Z,87.10
2018-10-09T16:58:27.969Z,87.30
2018-10-09T17:00:55.822Z,86.90
2018-10-09T17:03:23.694Z,87.30
2018-10-09T17:05:51.604Z,87.50
2018-10-09T17:08:19.746Z,87.50
2018-10-09T17:10:47.955Z,87.60
2018-10-09T17:13:15.801Z,88.00
2018-10-09T17:15:43.761Z,88.10
2018-10-09T17:18:11.643Z,88.40
2018-10-09T17:20:39.737Z,88.90
2018-10-09T17:23:07.621Z,89.40
2018-10-09T17:25:35.507Z,89.20
2018-10-09T17:28:03.629Z,89.50
2018-10-09T17:30:31.757Z,89.30
2018-10-09T17:32:59.683Z,89.20
2018-10-09T17:35:27.611Z,89.50
2018-10-09T17:37:55.537Z,89.10
2018-10-09T17:40:23.648Z,89.20
2018-10-09T17:42:51.507Z,90.00
2018-10-09T17:45:19.369Z,89.90
2018-10-09T17:47:48.311Z,89.60
2018-10-09T17:50:18.237Z,89.80
2018-10-09T17:52:46.168Z,90.20
2018-10-09T17:55:14.064Z,90.20
2018-10-09T17:57:42.968Z,90.10
2018-10-09T18:00:10.816Z,90.00
2018-10-09T18:02:38.984Z,90.10
2018-10-09T18:05:06.908Z,90.00
2018-10-09T18:07:34.921Z,89.70
2018-10-09T18:10:02.875Z,89.90
2018-10-09T18:12:31.072Z,89.90
2018-10-09T18:14:59.001Z,90.00
2018-10-09T18:17:27.652Z,90.20
2018-10-09T18:19:55.686Z,90.20
2018-10-09T18:22:23.731Z,90.30
2018-10-09T18:24:52.440Z,90.30
2018-10-09T18:27:20.318Z,90.40
2018-10-09T18:29:48.216Z,90.30
2018-10-09T18:32:16.472Z,90.30
2018-10-09T18:34:44.565Z,90.50
2018-10-09T18:37:12.443Z,90.60
2018-10-09T18:39:40.336Z,90.80
2018-10-09T18:42:08.190Z,90.70
2018-10-09T18:44:36.611Z,90.90
2018-10-09T18:47:09.051Z,90.80
2018-10-09T18:49:36.926Z,90.70
2018-10-09T18:52:04.866Z,90.80
2018-10-09T18:54:32.785Z,90.90
2018-10-09T18:57:00.691Z,91.00
2018-10-09T18:59:28.557Z,91.20
2018-10-09T19:01:56.467Z,91.30
2018-10-09T19:04:24.982Z,91.50
2018-10-09T19:06:53.153Z,91.30
2018-10-09T19:09:22.258Z,91.20
2018-10-09T19:11:50.470Z,91.20
2018-10-09T19:14:18.708Z,91.40
2018-10-09T19:16:46.631Z,91.20
2018-10-09T19:19:14.646Z,91.50
2018-10-09T19:21:44.002Z,91.30
2018-10-09T19:24:11.967Z,91.40
2018-10-09T19:26:39.843Z,91.60
2018-10-09T19:29:07.769Z,91.60
2018-10-09T19:31:36.121Z,91.50
2018-10-09T19:34:04.815Z,91.70
2018-10-09T19:36:32.975Z,91.70
2018-10-09T19:39:01.238Z,91.50
2018-10-09T19:41:29.158Z,91.30
2018-10-09T19:43:57.050Z,91.40
2018-10-09T19:46:25.524Z,91.40
2018-10-09T19:48:53.411Z,91.60
2018-10-09T19:51:21.390Z,92.00
2018-10-09T19:53:49.819Z,92.20
2018-10-09T19:56:17.721Z,92.10
2018-10-09T19:58:45.609Z,92.00
2018-10-09T20:01:13.625Z,92.10
2018-10-09T20:03:44.747Z,92.00
2018-10-09T20:06:12.800Z,91.90
2018-10-09T20:08:40.993Z,91.80
2018-10-09T20:11:08.905Z,92.00
2018-10-09T20:13:37.190Z,92.10
2018-10-09T20:16:05.711Z,92.40
2018-10-09T20:18:33.894Z,92.50
2018-10-09T20:21:01.759Z,93.90
2018-10-09T20:23:30.184Z,94.10
2018-10-09T20:25:58.184Z,93.80
2018-10-09T20:28:26.093Z,93.40
2018-10-09T20:30:54.605Z,93.40
2018-10-09T20:33:22.516Z,92.90
2018-10-09T20:35:51.133Z,93.20
2018-10-09T20:38:19.286Z,92.90
2018-10-09T20:40:47.660Z,92.70
2018-10-09T20:43:15.474Z,92.70
2018-10-09T20:45:43.368Z,92.70
2018-10-09T20:48:11.211Z,92.70
2018-10-09T20:50:39.138Z,92.50
2018-10-09T20:53:07.296Z,92.50
2018-10-09T20:55:35.120Z,92.50
2018-10-09T20:58:02.957Z,92.50
2018-10-09T21:00:30.803Z,92.40
2018-10-09T21:02:58.663Z,92.50
2018-10-09T21:05:26.530Z,91.70
2018-10-09T21:07:54.929Z,91.30
2018-10-09T21:10:22.844Z,91.40
2018-10-09T21:12:50.770Z,91.60
2018-10-09T21:15:18.648Z,91.90
2018-10-09T21:17:46.692Z,92.30
2018-10-09T21:20:14.399Z,92.70
2018-10-09T21:22:42.323Z,92.70
2018-10-09T21:25:10.137Z,92.90
2018-10-09T21:27:38.386Z,92.20
2018-10-09T21:30:06.342Z,91.90
2018-10-09T21:32:34.193Z,92.10
2018-10-09T21:35:02.034Z,92.10
2018-10-09T21:37:30.129Z,92.00
2018-10-09T21:39:58.761Z,92.30
2018-10-09T21:42:26.680Z,92.40
2018-10-09T21:44:54.509Z,92.60
2018-10-09T21:47:22.356Z,92.40
2018-10-09T21:49:50.956Z,92.20
2018-10-09T21:52:18.867Z,92.10
2018-10-09T21:54:46.749Z,92.30
2018-10-09T21:57:15.011Z,92.50
2018-10-09T21:59:42.868Z,92.40
2018-10-09T22:02:11.713Z,92.10
2018-10-09T22:04:39.508Z,91.80
2018-10-09T22:07:07.452Z,91.80
2018-10-09T22:09:35.288Z,91.60
2018-10-09T22:12:03.260Z,91.70
2018-10-09T22:14:31.116Z,91.70
2018-10-09T22:16:59.889Z,91.80
2018-10-09T22:19:27.816Z,91.90
2018-10-09T22:21:55.680Z,92.00
2018-10-09T22:24:23.592Z,92.20
2018-10-09T22:26:51.423Z,92.30
2018-10-09T22:29:19.249Z,92.70
2018-10-09T22:31:47.103Z,93.10
2018-10-09T22:34:14.955Z,93.10
2018-10-09T22:36:42.844Z,93.10
2018-10-09T22:39:10.894Z,93.20
2018-10-09T22:41:39.185Z,93.10
2018-10-09T22:44:07.725Z,93.20
2018-10-09T22:46:35.596Z,93.50
2018-10-09T22:49:03.771Z,93.70
2018-10-09T22:51:31.661Z,93.70
2018-10-09T22:53:59.509Z,93.50
2018-10-09T22:56:27.343Z,93.80
2018-10-09T22:58:55.180Z,93.60
2018-10-09T23:01:23.017Z,93.40
2018-10-09T23:03:50.868Z,93.50
2018-10-09T23:06:19.064Z,93.50
2018-10-09T23:08:46.901Z,93.60
2018-10-09T23:11:15.009Z,93.50
2018-10-09T23:13:42.852Z,93.60
2018-10-09T23:16:10.712Z,93.80
2018-10-09T23:18:38.564Z,93.70
2018-10-09T23:21:06.898Z,94.00
2018-10-09T23:23:34.867Z,94.00
2018-10-09T23:26:03.016Z,94.00
2018-10-09T23:28:31.198Z,93.80
2018-10-09T23:30:59.025Z,93.70
2018-10-09T23:33:26.828Z,93.60
2018-10-09T23:35:54.676Z,93.50
2018-10-09T23:38:23.488Z,93.50
2018-10-09T23:40:51.557Z,93.70
2018-10-09T23:43:19.412Z,93.70
2018-10-09T23:45:47.957Z,93.70
2018-10-09T23:48:15.861Z,93.80
2018-10-09T23:50:43.838Z,93.90
2018-10-09T23:53:11.787Z,94.10
2018-10-09T23:55:39.732Z,94.00
2018-10-09T23:58:07.633Z,94.10
